Time;durP1;ratioP1;P1;durP2;ratioP2;P2;SDS_P1;SDS_P2;PMS_P1;PMS_P2;Temp;Humidity;BMP_temperature;BMP_pressure;BME280_temperature;BME280_humidity;BME280_pressure;Samples;Min_cycle;Max_cycle;Signal;HPM_P1;HPM_P2
2023/05/04 00:02:21;;;;;;;;;;;;;;;12.01;47.24;101138.56;4966170;28;7063;-75
2023/05/04 00:04:47;;;;;;;;;;;;;;;12.00;46.79;101131.66;4968716;28;6772;-74
2023/05/04 00:07:13;;;;;;;;;;;;;;;12.00;47.04;101135.91;4967957;28;6776;-72
2023/05/04 00:09:38;;;;;;;;;;;;;;;11.95;47.38;101131.41;4963158;28;7210;-73
2023/05/04 00:12:05;;;;;;;;;;;;;;;11.95;47.19;101136.56;4982711;28;7022;-75
2023/05/04 00:14:31;;;;;;;;;;;;;;;11.92;47.78;101125.22;4951186;28;6801;-77
2023/05/04 00:16:56;;;;;;;;;;;;;;;11.92;47.85;101126.09;4952624;28;6844;-74
2023/05/04 00:19:22;;;;;;;;;;;;;;;11.91;47.83;101124.31;4953297;28;6776;-73
2023/05/04 00:21:48;;;;;;;;;;;;;;;11.91;47.52;101120.91;4964675;28;6772;-76
2023/05/04 00:24:13;;;;;;;;;;;;;;;11.91;47.60;101120.91;4955678;28;6833;-73
2023/05/04 00:26:39;;;;;;;;;;;;;;;11.89;48.10;101107.09;4971228;28;6840;-76
2023/05/04 00:29:04;;;;;;;;;;;;;;;11.92;47.90;101109.81;4963049;28;6895;-74
2023/05/04 00:31:30;;;;;;;;;;;;;;;11.93;48.51;101103.88;4958695;28;7008;-74
2023/05/04 00:33:56;;;;;;;;;;;;;;;11.96;48.13;101098.88;4980761;28;8875;-73
2023/05/04 00:36:22;;;;;;;;;;;;;;;11.97;47.89;101094.66;4952378;28;6995;-73
2023/05/04 00:38:52;;;;;;;;;;;;;;;11.98;48.49;101099.88;4969236;28;7199;-74
2023/05/04 00:41:20;;;;;;;;;;;;;;;12.00;47.87;101095.69;4967589;28;6816;-73
2023/05/04 00:43:46;;;;;;;;;;;;;;;12.01;48.49;101091.44;4954872;28;6780;-76
2023/05/04 00:46:13;;;;;;;;;;;;;;;12.00;47.87;101103.41;4962911;28;7272;-73
2023/05/04 00:48:48;;;;;;;;;;;;;;;12.02;47.98;101098.31;4987022;28;6991;-72
2023/05/04 00:51:18;;;;;;;;;;;;;;;12.01;48.46;101091.44;4972698;28;6845;-74
2023/05/04 00:53:44;;;;;;;;;;;;;;;12.01;47.87;101092.31;4990881;28;6864;-73
2023/05/04 00:56:11;;;;;;;;;;;;;;;12.02;48.32;101096.69;4969722;28;7063;-75
2023/05/04 00:58:37;;;;;;;;;;;;;;;12.00;48.16;101088.00;4966440;28;6827;-74
2023/05/04 01:01:03;;;;;;;;;;;;;;;11.99;48.20;101086.22;4963823;28;6784;-72
2023/05/04 01:03:30;;;;;;;;;;;;;;;11.98;48.44;101081.91;4968404;28;6804;-73
2023/05/04 01:06:25;;;;;;;;;;;;;;;11.97;48.09;101085.25;4953826;28;7245;-76
2023/05/04 01:09:43;;;;;;;;;;;;;;;11.94;47.94;101077.38;4953892;28;7017;-73
2023/05/04 01:12:37;;;;;;;;;;;;;;;11.91;48.24;101074.66;4964403;28;7086;-73
2023/05/04 01:15:03;;;;;;;;;;;;;;;11.90;48.13;101078.03;4956206;28;7036;-73
2023/05/04 01:17:29;;;;;;;;;;;;;;;11.89;48.66;101068.56;4972395;28;6803;-73
2023/05/04 01:19:55;;;;;;;;;;;;;;;11.87;47.97;101077.84;4966831;28;6860;-74
2023/05/04 01:22:21;;;;;;;;;;;;;;;11.85;48.43;101070.06;4969544;28;6815;-73
2023/05/04 01:24:48;;;;;;;;;;;;;;;11.84;48.23;101068.31;4954339;28;6946;-74
2023/05/04 01:27:25;;;;;;;;;;;;;;;11.83;48.62;101066.56;4987960;28;6788;-74
2023/05/04 01:30:10;;;;;;;;;;;;;;;11.80;48.64;101056.09;4957368;28;7263;-75
2023/05/04 01:32:38;;;;;;;;;;;;;;;11.78;48.89;101063.75;4968014;28;6974;-74
2023/05/04 01:35:04;;;;;;;;;;;;;;;11.76;48.62;101062.75;4972321;28;6796;-73
2023/05/04 01:37:29;;;;;;;;;;;;;;;11.75;48.20;101060.13;4969838;28;6999;-74
2023/05/04 01:39:55;;;;;;;;;;;;;;;11.74;48.58;101056.66;4966743;28;7130;-74
2023/05/04 01:42:21;;;;;;;;;;;;;;;11.73;48.29;101057.47;4971019;28;6768;-73
2023/05/04 01:44:46;;;;;;;;;;;;;;;11.74;48.54;101064.34;4953196;28;7287;-74
2023/05/04 01:47:12;;;;;;;;;;;;;;;11.73;48.75;101062.59;4977415;28;6872;-74
2023/05/04 01:49:38;;;;;;;;;;;;;;;11.74;48.69;101064.34;4953668;28;6919;-76
2023/05/04 01:52:03;;;;;;;;;;;;;;;11.74;49.26;101072.06;4964921;28;6803;-75
2023/05/04 01:54:29;;;;;;;;;;;;;;;11.75;48.71;101062.69;4971159;28;6987;-73
2023/05/04 01:56:54;;;;;;;;;;;;;;;11.75;48.62;101063.56;4976982;28;7352;-73
2023/05/04 01:59:20;;;;;;;;;;;;;;;11.75;49.16;101060.13;4968409;28;6911;-74
2023/05/04 02:01:46;;;;;;;;;;;;;;;11.77;49.08;101058.50;4964418;28;6780;-73
2023/05/04 02:04:11;;;;;;;;;;;;;;;11.77;48.90;101061.06;4974675;28;6997;-73
2023/05/04 02:06:37;;;;;;;;;;;;;;;11.78;48.78;101052.56;4983805;28;7784;-72
2023/05/04 02:09:03;;;;;;;;;;;;;;;11.77;48.79;101054.22;4968093;28;7886;-74
2023/05/04 02:11:29;;;;;;;;;;;;;;;11.77;48.71;101054.22;4967912;28;6924;-72
2023/05/04 02:13:54;;;;;;;;;;;;;;;11.77;48.54;101051.66;4968741;28;6996;-75
2023/05/04 02:16:20;;;;;;;;;;;;;;;11.76;48.63;101055.03;4965081;28;7403;-75
2023/05/04 02:18:46;;;;;;;;;;;;;;;11.77;48.68;101051.66;4981306;28;6979;-76
2023/05/04 02:21:12;;;;;;;;;;;;;;;11.76;49.14;101055.03;4953089;28;6836;-76
2023/05/04 02:23:38;;;;;;;;;;;;;;;11.76;49.07;101047.34;4983694;28;8279;-75
2023/05/04 02:26:04;;;;;;;;;;;;;;;11.74;48.55;101046.38;4960173;28;6768;-75
2023/05/04 02:28:29;;;;;;;;;;;;;;;11.73;49.21;101048.84;4981901;28;7845;-76
2023/05/04 02:30:55;;;;;;;;;;;;;;;11.69;48.63;101047.84;4961312;28;7140;-76
2023/05/04 02:33:20;;;;;;;;;;;;;;;11.69;48.92;101046.94;4981610;28;8738;-76
2023/05/04 02:35:46;;;;;;;;;;;;;;;11.66;48.68;101045.97;4971924;28;6988;-76
2023/05/04 02:38:12;;;;;;;;;;;;;;;11.64;48.86;101044.13;4951086;28;6910;-75
2023/05/04 02:40:37;;;;;;;;;;;;;;;11.63;49.15;101044.91;4982894;28;7051;-75
2023/05/04 02:43:03;;;;;;;;;;;;;;;11.61;49.15;101039.69;4951319;28;6781;-75
2023/05/04 02:45:28;;;;;;;;;;;;;;;11.61;49.06;101029.44;4952212;28;6764;-75
2023/05/04 02:47:54;;;;;;;;;;;;;;;11.62;49.28;101033.75;4966255;28;6991;-75
2023/05/04 02:50:20;;;;;;;;;;;;;;;11.62;48.85;101036.31;4950614;28;6784;-75
2023/05/04 02:52:45;;;;;;;;;;;;;;;11.64;49.13;101031.28;4955457;28;7224;-76
2023/05/04 02:55:11;;;;;;;;;;;;;;;11.65;48.88;101027.91;4966102;28;6844;-75
2023/05/04 02:57:36;;;;;;;;;;;;;;;11.65;49.15;101030.47;4956163;28;6991;-75
2023/05/04 03:00:05;;;;;;;;;;;;;;;11.65;49.02;101027.91;4980276;28;6768;-75
2023/05/04 03:02:31;;;;;;;;;;;;;;;11.65;49.29;101022.78;4949519;28;6999;-75
2023/05/04 03:04:57;;;;;;;;;;;;;;;11.63;49.08;101024.38;4952786;28;8100;-75
2023/05/04 03:07:22;;;;;;;;;;;;;;;11.63;49.05;101021.81;4951288;28;6792;-76
2023/05/04 03:09:48;;;;;;;;;;;;;;;11.60;49.52;101022.53;4965107;28;6776;-76
2023/05/04 03:12:14;;;;;;;;;;;;;;;11.59;49.61;101022.44;4967439;28;7086;-75
2023/05/04 03:14:40;;;;;;;;;;;;;;;11.58;49.72;101012.97;4968381;28;7190;-75
2023/05/04 03:17:05;;;;;;;;;;;;;;;11.58;49.50;101007.84;4950428;28;6772;-76
2023/05/04 03:19:31;;;;;;;;;;;;;;;11.57;49.48;101011.22;4981806;28;7005;-76
2023/05/04 03:21:56;;;;;;;;;;;;;;;11.56;49.30;101017.16;4957122;28;7325;-75
2023/05/04 03:24:23;;;;;;;;;;;;;;;11.57;49.57;101021.47;4967121;28;7593;-75
2023/05/04 03:26:49;;;;;;;;;;;;;;;11.57;49.39;101024.94;4966218;28;6808;-76
2023/05/04 03:29:15;;;;;;;;;;;;;;;11.55;49.59;101018.84;4962970;28;6776;-76
2023/05/04 03:31:41;;;;;;;;;;;;;;;11.54;49.93;101019.66;4981808;28;7945;-75
2023/05/04 03:34:08;;;;;;;;;;;;;;;11.51;49.66;101020.34;4950371;28;6981;-75
2023/05/04 03:36:34;;;;;;;;;;;;;;;11.49;49.81;101016.84;4981583;28;7115;-76
2023/05/04 03:39:00;;;;;;;;;;;;;;;11.47;49.97;101008.13;4954617;28;6777;-75
2023/05/04 03:41:25;;;;;;;;;;;;;;;11.44;49.39;101007.97;4974558;28;7168;-75
2023/05/04 03:43:51;;;;;;;;;;;;;;;11.42;49.62;101007.03;4952177;28;8499;-76
2023/05/04 03:46:16;;;;;;;;;;;;;;;11.40;49.86;101006.06;4960725;28;6844;-75
2023/05/04 03:48:42;;;;;;;;;;;;;;;11.36;49.44;100997.31;4978533;28;7445;-76
2023/05/04 03:51:08;;;;;;;;;;;;;;;11.33;49.97;101001.41;4955258;28;7292;-75
2023/05/04 03:53:34;;;;;;;;;;;;;;;11.32;49.78;100999.63;4947834;28;6893;-75
2023/05/04 03:56:01;;;;;;;;;;;;;;;11.29;50.15;100997.78;4963157;28;6902;-75
2023/05/04 03:58:26;;;;;;;;;;;;;;;11.29;49.95;101004.56;4972253;28;7000;-76
2023/05/04 04:00:52;;;;;;;;;;;;;;;11.27;49.96;101012.22;4982781;28;6967;-75
2023/05/04 04:03:18;;;;;;;;;;;;;;;11.25;49.77;101019.81;4978136;28;6934;-75
2023/05/04 04:05:43;;;;;;;;;;;;;;;11.25;50.18;101018.91;4968939;28;8011;-76
2023/05/04 04:08:09;;;;;;;;;;;;;;;11.25;50.32;101017.25;4962987;28;7161;-75
2023/05/04 04:10:35;;;;;;;;;;;;;;;11.25;50.15;101024.94;4980107;28;7226;-75
2023/05/04 04:13:00;;;;;;;;;;;;;;;11.26;50.01;101020.72;4973518;28;6988;-75
2023/05/04 04:15:26;;;;;;;;;;;;;;;11.26;50.36;101005.31;4972466;28;7024;-75
2023/05/04 04:17:51;;;;;;;;;;;;;;;11.29;50.57;101009.69;4960508;28;6954;-75
2023/05/04 04:20:17;;;;;;;;;;;;;;;11.31;50.59;101010.69;4962044;28;6836;-75
2023/05/04 04:22:43;;;;;;;;;;;;;;;11.33;50.73;101009.09;4966601;28;6776;-75
2023/05/04 04:25:09;;;;;;;;;;;;;;;11.37;50.51;101003.31;4985203;28;7928;-75
2023/05/04 04:27:35;;;;;;;;;;;;;;;11.40;50.21;101003.50;4967216;28;7151;-75
2023/05/04 04:30:03;;;;;;;;;;;;;;;11.45;50.60;101006.31;4943789;28;7059;-75
2023/05/04 04:32:29;;;;;;;;;;;;;;;11.50;50.31;101004.88;4936895;28;7019;-75
2023/05/04 04:34:54;;;;;;;;;;;;;;;11.56;51.05;101006.88;4953456;28;7238;-76
2023/05/04 04:37:21;;;;;;;;;;;;;;;11.63;50.29;101006.41;4985630;28;7325;-75
2023/05/04 04:39:46;;;;;;;;;;;;;;;11.72;51.12;101011.13;4968277;28;6799;-76
2023/05/04 04:42:12;;;;;;;;;;;;;;;11.81;50.96;101009.06;4979865;28;7182;-75
2023/05/04 04:44:38;;;;;;;;;;;;;;;11.91;50.66;101010.44;4964997;28;6923;-75
2023/05/04 04:47:05;;;;;;;;;;;;;;;12.01;50.69;101010.13;4964005;28;8848;-76
2023/05/04 04:49:31;;;;;;;;;;;;;;;12.11;50.84;101010.63;4964554;28;7837;-76
2023/05/04 04:51:56;;;;;;;;;;;;;;;12.22;50.64;101004.34;4967718;28;7195;-76
2023/05/04 04:54:22;;;;;;;;;;;;;;;12.33;50.92;101002.31;4953170;28;8037;-76
2023/05/04 04:56:48;;;;;;;;;;;;;;;12.49;50.88;101003.97;4957397;28;7235;-75
2023/05/04 04:59:13;;;;;;;;;;;;;;;12.66;50.56;101002.22;4990121;28;6952;-75
2023/05/04 05:01:41;;;;;;;;;;;;;;;12.84;51.51;101003.94;4961795;28;6780;-76
2023/05/04 05:04:06;;;;;;;;;;;;;;;12.99;51.01;101001.22;4962434;28;6820;-76
2023/05/04 05:06:32;;;;;;;;;;;;;;;13.13;50.99;100995.00;4971376;28;6914;-75
2023/05/04 05:08:58;;;;;;;;;;;;;;;13.30;50.79;100995.81;4970144;28;6776;-76
2023/05/04 05:11:24;;;;;;;;;;;;;;;13.47;49.94;100995.72;4958484;28;7080;-75
2023/05/04 05:13:49;;;;;;;;;;;;;;;13.65;50.49;100995.69;4949356;28;6800;-75
2023/05/04 05:16:15;;;;;;;;;;;;;;;13.82;50.29;100990.44;4971513;28;6776;-76
2023/05/04 05:18:41;;;;;;;;;;;;;;;13.96;49.10;100989.31;4956263;28;7297;-75
2023/05/04 05:21:08;;;;;;;;;;;;;;;14.05;48.41;100991.44;4992098;28;7308;-75
2023/05/04 05:23:34;;;;;;;;;;;;;;;14.10;49.07;100994.19;4970062;28;6848;-76
2023/05/04 05:26:00;;;;;;;;;;;;;;;14.10;48.65;101000.22;4981806;28;7088;-75
2023/05/04 05:28:26;;;;;;;;;;;;;;;14.08;48.15;100994.13;4986495;28;7099;-76
2023/05/04 05:30:51;;;;;;;;;;;;;;;14.12;48.46;101008.03;4948897;28;6985;-76
2023/05/04 05:33:17;;;;;;;;;;;;;;;14.14;48.10;100999.53;4951439;28;10971;-75
2023/05/04 05:35:44;;;;;;;;;;;;;;;14.19;47.50;101004.88;4946432;28;6920;-75
2023/05/04 05:38:10;;;;;;;;;;;;;;;14.25;48.13;101005.16;4967657;28;7066;-75
2023/05/04 05:40:36;;;;;;;;;;;;;;;14.31;47.58;100996.78;4984778;28;7313;-74
2023/05/04 05:43:04;;;;;;;;;;;;;;;14.39;47.56;101002.28;4972971;28;6856;-74
2023/05/04 05:45:30;;;;;;;;;;;;;;;14.48;47.86;101004.38;4957578;28;7230;-75
2023/05/04 05:47:55;;;;;;;;;;;;;;;14.56;47.75;101001.28;4984273;28;7137;-74
2023/05/04 05:50:22;;;;;;;;;;;;;;;14.63;47.72;101001.53;4962030;28;8088;-75
2023/05/04 05:52:48;;;;;;;;;;;;;;;14.68;47.99;101000.91;4940713;28;7231;-75
2023/05/04 05:55:14;;;;;;;;;;;;;;;14.77;48.18;101004.72;4983456;28;6986;-75
2023/05/04 05:57:40;;;;;;;;;;;;;;;14.83;47.64;101004.97;4951438;28;6764;-75
2023/05/04 06:00:06;;;;;;;;;;;;;;;14.91;46.92;101002.69;4969851;28;6960;-75
2023/05/04 06:02:32;;;;;;;;;;;;;;;14.98;47.50;101002.97;4952613;28;7100;-75
2023/05/04 06:04:57;;;;;;;;;;;;;;;15.05;47.20;101001.53;4951016;28;8818;-75
2023/05/04 06:07:23;;;;;;;;;;;;;;;15.10;46.58;100997.44;4969559;28;6848;-75
2023/05/04 06:09:49;;;;;;;;;;;;;;;15.19;46.56;100998.63;4979175;28;9003;-75
2023/05/04 06:12:16;;;;;;;;;;;;;;;15.25;46.14;100986.81;4971317;28;7008;-75
2023/05/04 06:14:42;;;;;;;;;;;;;;;15.32;46.30;100992.22;4968943;28;6804;-75
2023/05/04 06:17:08;;;;;;;;;;;;;;;15.35;46.30;100990.59;4967989;28;6995;-75
2023/05/04 06:19:36;;;;;;;;;;;;;;;15.38;45.70;100995.91;4952445;28;6914;-75
2023/05/04 06:22:03;;;;;;;;;;;;;;;15.41;45.77;100983.09;4951944;28;7081;-75
2023/05/04 06:24:30;;;;;;;;;;;;;;;15.48;45.92;100985.94;4963544;28;7231;-75
2023/05/04 06:26:56;;;;;;;;;;;;;;;15.54;45.59;100978.38;4964616;28;6852;-75
2023/05/04 06:29:23;;;;;;;;;;;;;;;15.61;45.38;100972.63;4966170;28;7572;-75
2023/05/04 06:31:49;;;;;;;;;;;;;;;15.68;45.28;100977.19;4960929;28;6947;-75
2023/05/04 06:34:18;;;;;;;;;;;;;;;15.76;44.78;100974.03;4984731;28;6979;-74
2023/05/04 06:36:44;;;;;;;;;;;;;;;15.83;44.84;100970.81;4956839;28;7091;-77
2023/05/04 06:39:10;;;;;;;;;;;;;;;15.89;44.67;100960.69;4952650;28;7428;-74
2023/05/04 06:41:36;;;;;;;;;;;;;;;15.95;44.17;100967.81;4951737;28;6820;-77
2023/05/04 06:44:03;;;;;;;;;;;;;;;16.02;44.74;100961.16;4969572;28;8294;-76
2023/05/04 06:46:29;;;;;;;;;;;;;;;16.11;44.17;100958.88;4955888;28;7167;-77
2023/05/04 06:48:57;;;;;;;;;;;;;;;16.17;44.07;100964.28;4969872;28;7060;-77
2023/05/04 06:51:22;;;;;;;;;;;;;;;16.22;43.27;100956.66;4963434;28;6931;-77
2023/05/04 06:53:48;;;;;;;;;;;;;;;16.28;44.00;100962.06;4968287;28;6780;-77
2023/05/04 06:56:13;;;;;;;;;;;;;;;16.34;43.51;100951.03;4982377;28;6827;-77
2023/05/04 06:58:39;;;;;;;;;;;;;;;16.41;43.76;100952.13;4954603;28;7113;-77
2023/05/04 07:01:07;;;;;;;;;;;;;;;16.45;43.22;100949.66;4962146;28;7763;-76
2023/05/04 07:03:34;;;;;;;;;;;;;;;16.50;43.29;100948.09;4953167;28;6995;-78
2023/05/04 07:05:59;;;;;;;;;;;;;;;16.58;43.14;100942.31;4983375;28;6883;-78
2023/05/04 07:08:25;;;;;;;;;;;;;;;16.65;43.52;100946.84;4967125;28;6839;-78
2023/05/04 07:10:51;;;;;;;;;;;;;;;16.74;43.42;100946.25;4953137;28;6997;-77
2023/05/04 07:13:16;;;;;;;;;;;;;;;16.82;43.14;100949.09;4963979;28;6988;-78
2023/05/04 07:15:42;;;;;;;;;;;;;;;16.90;43.15;100938.13;4982554;28;7047;-77
2023/05/04 07:18:08;;;;;;;;;;;;;;;16.96;43.31;100934.84;4983308;28;6979;-78
2023/05/04 07:20:33;;;;;;;;;;;;;;;17.06;43.04;100941.22;4950653;28;6930;-77
2023/05/04 07:22:59;;;;;;;;;;;;;;;17.17;43.13;100936.34;4968190;28;6876;-78
2023/05/04 07:25:26;;;;;;;;;;;;;;;17.28;42.87;100929.75;4973662;28;7251;-76
2023/05/04 07:27:53;;;;;;;;;;;;;;;17.40;42.97;100926.66;4957067;28;7142;-75
2023/05/04 07:30:20;;;;;;;;;;;;;;;17.53;42.82;100925.28;4969296;28;6792;-78
2023/05/04 07:32:46;;;;;;;;;;;;;;;17.66;42.55;100925.63;4952939;28;7143;-77
2023/05/04 07:35:11;;;;;;;;;;;;;;;17.74;42.51;100912.03;4976890;28;6972;-78
2023/05/04 07:37:37;;;;;;;;;;;;;;;17.85;42.20;100920.09;4971087;28;6776;-75
2023/05/04 07:40:04;;;;;;;;;;;;;;;17.99;42.55;100923.03;4966586;28;6808;-78
2023/05/04 07:42:30;;;;;;;;;;;;;;;18.16;42.08;100918.34;4954178;28;6792;-75
2023/05/04 07:44:57;;;;;;;;;;;;;;;18.32;42.02;100916.09;4968320;28;7236;-77
2023/05/04 07:47:22;;;;;;;;;;;;;;;18.45;41.76;100900.00;4967709;28;7205;-78
2023/05/04 07:49:48;;;;;;;;;;;;;;;18.57;41.51;100904.59;4955035;28;6785;-78
2023/05/04 07:52:14;;;;;;;;;;;;;;;18.70;41.10;100900.56;4956242;28;6776;-76
2023/05/04 07:54:40;;;;;;;;;;;;;;;18.84;41.42;100900.84;4957438;28;6860;-75
2023/05/04 07:57:05;;;;;;;;;;;;;;;18.97;41.13;100891.63;4970412;28;6784;-77
2023/05/04 07:59:32;;;;;;;;;;;;;;;19.09;40.91;100884.94;4955012;28;7022;-77
2023/05/04 08:01:57;;;;;;;;;;;;;;;19.22;40.68;100894.78;4954700;28;6856;-78
2023/05/04 08:04:23;;;;;;;;;;;;;;;19.33;41.00;100889.75;4969113;28;6848;-78
2023/05/04 08:06:49;;;;;;;;;;;;;;;19.42;40.74;100886.50;4984013;28;6892;-78
2023/05/04 08:09:15;;;;;;;;;;;;;;;19.54;40.44;100886.72;4962665;28;6974;-76
2023/05/04 08:11:41;;;;;;;;;;;;;;;19.63;39.84;100888.59;4969992;28;6991;-77
2023/05/04 08:14:07;;;;;;;;;;;;;;;19.73;40.13;100889.66;4967796;28;6796;-77
2023/05/04 08:16:33;;;;;;;;;;;;;;;19.82;39.54;100883.72;4967967;28;6975;-78
2023/05/04 08:19:00;;;;;;;;;;;;;;;19.92;39.60;100879.56;4987338;28;8543;-77
2023/05/04 08:21:26;;;;;;;;;;;;;;;20.05;39.52;100878.09;4971908;28;6953;-76
2023/05/04 08:23:53;;;;;;;;;;;;;;;20.22;39.35;100867.94;4965688;28;6796;-77
2023/05/04 08:26:19;;;;;;;;;;;;;;;20.39;39.32;100868.19;4954931;28;6992;-78
2023/05/04 08:28:45;;;;;;;;;;;;;;;20.56;38.90;100875.38;4963724;28;6792;-77
2023/05/04 08:31:12;;;;;;;;;;;;;;;20.68;38.57;100866.03;4966470;28;6981;-76
2023/05/04 08:33:37;;;;;;;;;;;;;;;20.79;38.38;100858.34;4954578;28;7215;-77
2023/05/04 08:36:06;;;;;;;;;;;;;;;20.92;38.37;100858.53;4955299;28;7211;-76
2023/05/04 08:38:31;;;;;;;;;;;;;;;21.05;37.91;100859.53;4982140;28;7003;-77
2023/05/04 08:41:00;;;;;;;;;;;;;;;21.18;37.94;100856.25;4960472;28;6975;-77
2023/05/04 08:43:28;;;;;;;;;;;;;;;21.35;37.70;100859.03;4970049;28;7054;-75
2023/05/04 08:45:54;;;;;;;;;;;;;;;21.55;37.76;100850.53;4966102;28;6803;-76
2023/05/04 08:48:21;;;;;;;;;;;;;;;21.75;37.57;100850.75;4948817;28;6780;-78
2023/05/04 08:50:47;;;;;;;;;;;;;;;21.99;37.54;100856.19;4983448;28;7080;-77
2023/05/04 08:53:17;;;;;;;;;;;;;;;22.27;37.05;100843.31;4953640;28;6792;-78
2023/05/04 08:55:47;;;;;;;;;;;;;;;22.58;36.48;100838.31;4967112;28;6876;-77
2023/05/04 08:58:17;;;;;;;;;;;;;;;22.90;36.01;100832.34;4966687;28;7902;-77
2023/05/04 09:00:45;;;;;;;;;;;;;;;23.26;35.44;100822.88;4941868;28;7019;-77
2023/05/04 09:03:12;;;;;;;;;;;;;;;23.66;35.32;100809.00;4940425;28;6984;-75
2023/05/04 09:05:40;;;;;;;;;;;;;;;24.11;34.24;100810.75;4947329;28;6956;-74
2023/05/04 09:08:06;;;;;;;;;;;;;;;24.57;34.17;100808.88;4976161;28;6850;-74
2023/05/04 09:10:33;;;;;;;;;;;;;;;25.03;33.80;100816.56;4978836;28;6784;-74
2023/05/04 09:12:59;;;;;;;;;;;;;;;25.45;32.78;100804.94;4960632;28;6820;-74
2023/05/04 09:15:25;;;;;;;;;;;;;;;25.84;32.91;100791.53;4961810;28;6784;-74
2023/05/04 09:18:02;;;;;;;;;;;;;;;26.14;31.83;100795.59;4941399;28;6954;-74
2023/05/04 09:20:29;;;;;;;;;;;;;;;26.43;31.72;100785.69;4963573;28;6810;-74
2023/05/04 09:23:07;;;;;;;;;;;;;;;26.72;31.32;100789.72;4961709;28;6800;-74
2023/05/04 09:25:48;;;;;;;;;;;;;;;27.03;30.70;100782.28;4956438;28;6784;-74
2023/05/04 09:28:15;;;;;;;;;;;;;;;27.46;30.99;100777.25;4977413;28;6800;-74
2023/05/04 09:30:41;;;;;;;;;;;;;;;27.88;29.95;100770.41;4947388;28;7391;-74
2023/05/04 09:33:09;;;;;;;;;;;;;;;28.33;29.20;100770.47;4971236;28;7215;-75
2023/05/04 09:35:41;;;;;;;;;;;;;;;28.76;29.56;100771.31;4969609;28;6804;-75
2023/05/04 09:38:08;;;;;;;;;;;;;;;29.16;28.82;100773.97;4960833;28;7149;-75
2023/05/04 09:40:40;;;;;;;;;;;;;;;29.49;28.29;100777.59;4957839;28;6864;-75
2023/05/04 09:43:08;;;;;;;;;;;;;;;29.76;28.66;100772.50;4962978;28;8104;-74
2023/05/04 09:45:40;;;;;;;;;;;;;;;30.10;28.01;100772.50;4950845;28;6891;-74
2023/05/04 09:48:30;;;;;;;;;;;;;;;30.57;27.21;100774.72;4980710;28;6995;-75
2023/05/04 09:51:01;;;;;;;;;;;;;;;30.83;26.75;100767.78;4952013;28;6804;-75
2023/05/04 09:53:29;;;;;;;;;;;;;;;30.93;26.34;100763.91;4973573;28;6860;-75
2023/05/04 09:55:58;;;;;;;;;;;;;;;31.13;26.24;100773.00;4955565;28;7933;-74
2023/05/04 09:58:24;;;;;;;;;;;;;;;31.25;26.27;100766.47;4984747;28;7003;-75
2023/05/04 10:00:52;;;;;;;;;;;;;;;31.31;26.14;100764.47;4952548;28;7281;-75
2023/05/04 10:03:20;;;;;;;;;;;;;;;31.48;25.86;100764.81;4970178;28;6982;-75
2023/05/04 10:05:47;;;;;;;;;;;;;;;31.64;25.46;100760.75;4970307;28;6784;-75
2023/05/04 10:08:13;;;;;;;;;;;;;;;31.84;25.59;100751.25;4952902;28;7057;-74
2023/05/04 10:10:39;;;;;;;;;;;;;;;32.04;25.24;100750.53;4965522;28;6788;-74
2023/05/04 10:13:05;;;;;;;;;;;;;;;32.27;24.94;100741.75;4957800;28;7225;-75
2023/05/04 10:15:32;;;;;;;;;;;;;;;32.51;24.91;100740.88;4967802;28;7269;-75
2023/05/04 10:18:37;;;;;;;;;;;;;;;32.82;24.67;100735.22;4966176;28;6852;-75
2023/05/04 10:22:00;;;;;;;;;;;;;;;33.04;24.47;100729.06;4952346;28;6796;-75
2023/05/04 10:25:07;;;;;;;;;;;;;;;33.03;24.16;100732.66;4922248;28;7370;-75
2023/05/04 10:28:36;;;;;;;;;;;;;;;32.99;23.86;100715.13;4918986;28;7048;-75
2023/05/04 10:31:03;;;;;;;;;;;;;;;32.86;23.96;100713.88;4951772;28;6900;-75
2023/05/04 10:33:40;;;;;;;;;;;;;;;32.82;23.97;100708.69;4966823;28;7692;-75
2023/05/04 10:36:07;;;;;;;;;;;;;;;32.88;23.77;100712.88;4953026;28;6940;-74
2023/05/04 10:38:35;;;;;;;;;;;;;;;32.96;23.60;100702.00;4964536;28;6835;-74
2023/05/04 10:41:13;;;;;;;;;;;;;;;33.09;23.49;100697.88;4966554;28;6788;-75
2023/05/04 10:43:39;;;;;;;;;;;;;;;33.21;23.52;100690.31;4961881;28;6939;-74
2023/05/04 10:46:20;;;;;;;;;;;;;;;33.36;23.12;100687.00;4966918;28;6975;-75
2023/05/04 10:48:46;;;;;;;;;;;;;;;33.38;23.00;100673.69;4953202;28;7463;-75
2023/05/04 10:51:23;;;;;;;;;;;;;;;33.50;22.93;100666.97;4962118;28;7130;-74
2023/05/04 10:53:50;;;;;;;;;;;;;;;33.59;23.18;100649.78;4971388;28;7069;-74
2023/05/04 10:56:27;;;;;;;;;;;;;;;33.65;22.91;100649.47;4957172;28;6868;-75
2023/05/04 10:58:54;;;;;;;;;;;;;;;33.72;22.59;100640.31;4950627;28;7265;-74
2023/05/04 11:01:20;;;;;;;;;;;;;;;33.76;22.77;100641.91;4963314;28;6792;-74
2023/05/04 11:03:48;;;;;;;;;;;;;;;33.80;22.41;100640.81;4966045;28;6788;-74
2023/05/04 11:06:16;;;;;;;;;;;;;;;33.76;22.28;100630.41;4953554;28;6991;-75
2023/05/04 11:08:42;;;;;;;;;;;;;;;33.71;22.40;100621.78;4954792;28;6784;-74
2023/05/04 11:11:08;;;;;;;;;;;;;;;33.62;22.18;100629.25;4966158;28;7309;-74
2023/05/04 11:13:40;;;;;;;;;;;;;;;33.57;22.09;100609.13;4949642;28;6780;-74
2023/05/04 11:16:06;;;;;;;;;;;;;;;33.60;22.26;100617.81;4959749;28;6902;-74
2023/05/04 11:18:34;;;;;;;;;;;;;;;33.71;22.43;100608.50;4960082;28;6832;-74
2023/05/04 11:21:01;;;;;;;;;;;;;;;33.76;22.03;100606.47;4960298;28;6784;-75
2023/05/04 11:23:27;;;;;;;;;;;;;;;33.66;21.58;100609.56;4963826;28;6900;-75
2023/05/04 11:25:53;;;;;;;;;;;;;;;33.51;21.72;100602.28;4965746;28;6947;-77
2023/05/04 11:28:29;;;;;;;;;;;;;;;33.56;21.98;100605.59;4941314;28;7065;-78
2023/05/04 11:30:56;;;;;;;;;;;;;;;33.80;22.22;100600.97;4974171;28;7161;-75
2023/05/04 11:33:22;;;;;;;;;;;;;;;34.06;21.82;100593.59;4957494;28;7255;-77
2023/05/04 11:35:47;;;;;;;;;;;;;;;34.33;21.49;100601.16;4954932;28;7584;-75
2023/05/04 11:38:19;;;;;;;;;;;;;;;34.50;21.07;100596.78;4955592;28;6771;-77
2023/05/04 11:40:47;;;;;;;;;;;;;;;34.58;21.35;100593.81;4970640;28;6796;-75
2023/05/04 11:43:13;;;;;;;;;;;;;;;34.60;20.95;100581.28;4961871;28;6954;-78
2023/05/04 11:45:41;;;;;;;;;;;;;;;34.66;20.68;100580.94;4986886;28;6792;-78
2023/05/04 11:48:08;;;;;;;;;;;;;;;34.65;20.75;100587.22;4982288;28;7113;-77
2023/05/04 11:50:34;;;;;;;;;;;;;;;34.71;20.80;100578.03;4971164;28;6936;-78
2023/05/04 11:53:11;;;;;;;;;;;;;;;34.88;20.72;100571.88;4970493;28;6991;-75
2023/05/04 11:55:37;;;;;;;;;;;;;;;35.08;20.08;100588.66;4959979;28;6982;-77
2023/05/04 11:58:08;;;;;;;;;;;;;;;35.13;20.34;100587.47;4968256;28;6805;-77
2023/05/04 12:00:45;;;;;;;;;;;;;;;35.17;20.53;100588.16;4952034;28;6796;-77
2023/05/04 12:03:13;;;;;;;;;;;;;;;35.34;20.42;100578.38;4968757;28;7390;-77
2023/05/04 12:05:50;;;;;;;;;;;;;;;35.59;19.81;100584.16;4956362;28;7201;-75
2023/05/04 12:08:40;;;;;;;;;;;;;;;35.60;19.83;100582.34;4967575;28;7676;-78
2023/05/04 12:11:20;;;;;;;;;;;;;;;35.58;19.61;100579.78;4955703;28;6808;-76
2023/05/04 12:13:48;;;;;;;;;;;;;;;35.65;19.40;100568.78;4953598;28;6800;-76
2023/05/04 12:16:17;;;;;;;;;;;;;;;35.59;19.60;100569.97;4950279;28;7134;-76
2023/05/04 12:18:45;;;;;;;;;;;;;;;35.59;19.16;100573.50;4982159;28;7218;-76
2023/05/04 12:21:18;;;;;;;;;;;;;;;35.58;19.67;100561.13;4955182;28;7241;-74
2023/05/04 12:23:45;;;;;;;;;;;;;;;35.50;19.52;100565.13;4951710;28;8447;-76
2023/05/04 12:26:12;;;;;;;;;;;;;;;35.43;19.83;100564.56;4960402;28;7149;-75
2023/05/04 12:28:40;;;;;;;;;;;;;;;35.47;19.56;100554.63;4952185;28;6800;-76
2023/05/04 12:31:06;;;;;;;;;;;;;;;35.63;19.59;100557.31;4953829;28;6792;-76
2023/05/04 12:33:33;;;;;;;;;;;;;;;35.80;19.07;100548.41;4965095;28;6772;-75
2023/05/04 12:36:00;;;;;;;;;;;;;;;35.85;19.07;100543.66;4952508;28;7161;-76
2023/05/04 12:38:27;;;;;;;;;;;;;;;35.84;18.97;100552.59;4951326;28;7251;-76
2023/05/04 12:40:54;;;;;;;;;;;;;;;35.90;18.97;100554.06;4968317;28;6800;-75
2023/05/04 12:43:21;;;;;;;;;;;;;;;35.95;19.07;100542.19;4988697;28;7025;-76
2023/05/04 12:45:52;;;;;;;;;;;;;;;35.77;18.78;100544.09;4984845;28;6808;-76
2023/05/04 12:48:21;;;;;;;;;;;;;;;35.67;19.48;100540.22;4955025;28;7404;-76
2023/05/04 12:50:49;;;;;;;;;;;;;;;35.60;18.70;100537.06;4968292;28;6792;-76
2023/05/04 12:53:17;;;;;;;;;;;;;;;35.47;18.76;100539.50;4986764;28;6780;-76